Пруска-Волгинова

Карта отелей и гостиниц, располагающихся рядом с аэропортом Пруска-Волгинова :

Пруска-Волгинова Брестская область 52° 23' 22.1208" N, 23° 52' 7.2696" E
Код аэродрома ИКАО
UMNT
Код аэродрома RU
УМНТ
Координаты
N52.38948° E023.86869°
Превышение над уровнем моря
162
Основная полоса
10/28
Курс магнитный
098,4/278,4
Длина основной ВПП
390
Ширина основной ВПП
18
Покрытие основной ВПП
Твёрдое (асфальтобетон)
Освещение ВПП
Нет
Тип: 
Аэродром
Класс аэродрома: 
Принадлежность: 
ГА
Статус: 
Действующий
Сайт: 
E-mail аэродрома: 
Страна: 
Беларусь
Регион: 
Брестская область
Город: 
Дополнительная информация: 
Бывшая площадка АХР и РООЛАВВС. Состояние ИВПП не исследовано.

Найти трансфер

С помощью этой формы Вы можете найти трансфер из аэропорта Пруска-Волгинова в город, аэропорт или вокзал:

Погода в аэропортах:

Авиационная погода в Якутске

Регион: 
Погода METAR: 
UEEE 221800Z 02002MPS 9999 -SN NSC M31/M34 Q1027 R23L/490150 NOSIG RMK QFE761
Время наблюдения
2022-01-22T18:00:00Z
Температура C
-31.0
Точка росы
-34.0
Направление ветра
20
Скорость ветра (узлы)
4
Метео видимость
6.21
Облачность
CLR
Нижняя граница облачности (футы)
Явления погоды
-SN
Условия полета
VFR
Аэропорт подробнее: 
CLR — нет облаков ниже 3000 м
-SN – слабый снег;

Авиационная погода в Челябинске

Регион: 
Погода METAR: 
USCC 221800Z 11001MPS 2800 BR FU NSC M21/M24 Q1030 R27/420350 NOSIG RMK QFE752
Время наблюдения
2022-01-22T18:00:00Z
Температура C
-21.0
Точка росы
-24.0
Направление ветра
110
Скорость ветра (узлы)
2
Метео видимость
1.74
Облачность
CLR
Нижняя граница облачности (футы)
Явления погоды
BR FU
Условия полета
IFR
Аэропорт подробнее: 
CLR — нет облаков ниже 3000 м
BR – дымка (видимость от 1 до 9 км); FU – дым (видимость менее 10 км);

Авиационная погода в Угольном

Регион: 
Погода METAR: 
UHMA 221800Z 36003MPS 4100 -SN FEW023 SCT042 M21/M23 Q0990 R01/////// NOSIG RMK TDZ R01/36003G04MPS END R01/33001MPS QFE738/0985
Время наблюдения
2022-01-22T18:00:00Z
Температура C
-21.0
Точка росы
-23.0
Направление ветра
360
Скорость ветра (узлы)
6
Метео видимость
2.55
Облачность
FEW
SCT
Нижняя граница облачности (футы)
2300
4200
Явления погоды
-SN
Условия полета
IFR
Аэропорт подробнее: 
FEW – незначительная облачность; SCT – разбросанная отдельная облачность;
-SN – слабый снег;

Авиационная погода в Москве - Остафьево

Погода METAR: 
UUMO 221800Z 10004MPS 2000 R07/2000U SN OVC008 M04/M05 Q1011 RESN R07/491030 NOSIG RMK QFE744/0992
Время наблюдения
2022-01-22T18:00:00Z
Температура C
-4.0
Точка росы
-5.0
Направление ветра
100
Скорость ветра (узлы)
8
Метео видимость
1.24
Облачность
OVC
Нижняя граница облачности (футы)
800
Явления погоды
SN
Условия полета
IFR
Аэропорт подробнее: 
OVC – сплошная облачность;
SN – снег;